createdAt,value
2022-11-23T00:00:49.230Z,27.13
2022-11-23T00:02:55.250Z,28.57
2022-11-23T00:04:57.437Z,24.23
2022-11-23T00:06:59.658Z,35.73
2022-11-23T00:09:02.180Z,32.87
2022-11-23T00:11:04.395Z,31.97
2022-11-23T00:13:06.677Z,28.73
2022-11-23T00:15:09.240Z,30.97
2022-11-23T00:17:11.331Z,27.37
2022-11-23T00:19:13.518Z,24.50
2022-11-23T00:21:17.121Z,23.93
2022-11-23T00:23:19.345Z,32.33
2022-11-23T00:25:21.490Z,33.07
2022-11-23T00:27:23.703Z,24.50
2022-11-23T00:29:25.881Z,21.17
2022-11-23T00:31:28.183Z,27.03
2022-11-23T00:33:30.361Z,25.40
2022-11-23T00:35:32.700Z,24.17
2022-11-23T00:37:36.686Z,25.60
2022-11-23T00:39:39.896Z,20.97
2022-11-23T00:41:42.001Z,22.83
2022-11-23T00:43:44.281Z,22.80
2022-11-23T00:45:46.486Z,26.40
2022-11-23T00:47:48.659Z,21.03
2022-11-23T00:49:50.838Z,21.93
2022-11-23T00:51:53.225Z,27.87
2022-11-23T00:53:55.551Z,34.43
2022-11-23T00:55:59.659Z,24.53
2022-11-23T00:58:01.749Z,21.67
2022-11-23T01:00:05.721Z,25.27
2022-11-23T01:02:07.996Z,22.37
2022-11-23T01:04:10.209Z,28.00
2022-11-23T01:06:18.027Z,29.53
2022-11-23T01:08:20.388Z,23.87
2022-11-23T01:10:22.521Z,29.80
2022-11-23T01:12:24.635Z,27.40
2022-11-23T01:14:26.811Z,26.87
2022-11-23T01:16:31.898Z,38.00
2022-11-23T01:18:34.787Z,27.60
2022-11-23T01:20:37.100Z,28.47
2022-11-23T01:22:39.246Z,33.13
2022-11-23T01:24:41.588Z,31.27
2022-11-23T01:26:44.893Z,27.67
2022-11-23T01:28:47.323Z,26.23
2022-11-23T01:30:49.498Z,32.57
2022-11-23T01:32:51.612Z,28.93
2022-11-23T01:34:53.730Z,29.67
2022-11-23T01:36:55.898Z,33.47
2022-11-23T01:38:59.256Z,24.20
2022-11-23T01:41:01.435Z,25.30
2022-11-23T01:43:07.357Z,22.53
2022-11-23T01:45:27.980Z,22.77
2022-11-23T01:47:30.189Z,28.17
2022-11-23T01:49:45.471Z,30.00
2022-11-23T01:51:51.337Z,42.77
2022-11-23T01:53:57.857Z,25.43
2022-11-23T01:56:02.569Z,22.97
2022-11-23T01:58:06.354Z,32.90
2022-11-23T02:00:09.413Z,35.20
2022-11-23T02:02:20.417Z,37.93
2022-11-23T02:04:30.353Z,33.13
2022-11-23T02:06:33.170Z,23.73
2022-11-23T02:08:38.126Z,28.63
2022-11-23T02:10:40.339Z,33.20
2022-11-23T02:12:45.489Z,24.10
2022-11-23T02:14:47.818Z,25.73
2022-11-23T02:16:50.108Z,25.10
2022-11-23T02:18:52.675Z,27.77
2022-11-23T02:20:58.330Z,30.03
2022-11-23T02:23:19.140Z,27.03
2022-11-23T02:25:33.250Z,31.50
2022-11-23T02:27:35.366Z,25.83
2022-11-23T02:29:37.554Z,25.10
2022-11-23T02:31:39.724Z,23.13
2022-11-23T02:33:41.840Z,27.67
2022-11-23T02:35:49.563Z,21.63
2022-11-23T02:37:52.401Z,29.07
2022-11-23T02:39:54.965Z,27.70
2022-11-23T02:41:57.930Z,30.67
2022-11-23T02:44:00.568Z,17.90
2022-11-23T02:46:04.327Z,29.07
2022-11-23T02:48:06.716Z,21.10
2022-11-23T02:50:09.044Z,27.17
2022-11-23T02:52:11.208Z,22.73
2022-11-23T02:54:13.340Z,22.00
2022-11-23T02:56:15.619Z,22.87
2022-11-23T02:58:17.781Z,16.90
2022-11-23T03:00:20.025Z,20.07
2022-11-23T03:02:23.124Z,19.87
2022-11-23T03:04:27.823Z,21.73
2022-11-23T03:06:30.258Z,31.20
2022-11-23T03:08:33.163Z,22.17
2022-11-23T03:10:35.512Z,26.13
2022-11-23T03:12:37.696Z,22.57
2022-11-23T03:14:40.394Z,21.93
2022-11-23T03:16:42.739Z,25.10
2022-11-23T03:18:45.083Z,20.87
2022-11-23T03:20:47.314Z,26.57
2022-11-23T03:22:51.513Z,17.43
2022-11-23T03:24:56.418Z,19.37
2022-11-23T03:26:58.686Z,23.00
2022-11-23T03:29:00.841Z,21.63
2022-11-23T03:31:04.965Z,28.43
2022-11-23T03:33:07.418Z,24.60
2022-11-23T03:35:10.931Z,21.13
2022-11-23T03:37:25.908Z,23.27
2022-11-23T03:39:28.612Z,23.77
2022-11-23T03:42:06.004Z,19.70
2022-11-23T03:44:10.068Z,21.50
2022-11-23T03:46:12.288Z,20.27
2022-11-23T03:48:15.010Z,25.67
2022-11-23T03:50:17.386Z,21.47
2022-11-23T03:52:19.523Z,20.27
2022-11-23T03:54:22.847Z,26.43
2022-11-23T03:56:25.118Z,35.13
2022-11-23T03:58:27.243Z,23.13
2022-11-23T04:00:30.773Z,20.80
2022-11-23T04:02:33.623Z,17.67
2022-11-23T04:04:42.666Z,22.67
2022-11-23T04:06:58.973Z,21.47
2022-11-23T04:09:15.732Z,18.33
2022-11-23T04:11:34.630Z,24.40
2022-11-23T04:13:36.859Z,19.43
2022-11-23T04:15:39.075Z,18.73
2022-11-23T04:17:41.242Z,19.27
2022-11-23T04:19:43.430Z,16.47
2022-11-23T04:21:45.770Z,18.47
2022-11-23T04:23:49.054Z,20.30
2022-11-23T04:25:51.745Z,22.70
2022-11-23T04:27:55.047Z,16.07
2022-11-23T04:29:58.176Z,23.80
2022-11-23T04:32:00.337Z,20.73
2022-11-23T04:34:02.590Z,18.80
2022-11-23T04:36:05.181Z,24.63
2022-11-23T04:38:07.571Z,20.67
2022-11-23T04:40:10.385Z,27.77
2022-11-23T04:42:16.922Z,21.50
2022-11-23T04:44:24.585Z,18.80
2022-11-23T04:46:33.279Z,24.33
2022-11-23T04:48:35.637Z,22.70
2022-11-23T04:50:40.652Z,21.30
2022-11-23T04:52:44.935Z,24.03
2022-11-23T04:54:52.565Z,17.67
2022-11-23T04:56:55.083Z,22.33
2022-11-23T04:58:57.296Z,27.40
2022-11-23T05:00:59.739Z,23.30
2022-11-23T05:03:02.999Z,28.07
2022-11-23T05:05:08.488Z,23.60
2022-11-23T05:07:10.736Z,24.70
2022-11-23T05:09:15.162Z,19.80
2022-11-23T05:11:27.170Z,24.87
2022-11-23T05:13:32.018Z,22.50
2022-11-23T05:15:36.464Z,23.80
2022-11-23T05:17:39.042Z,31.13
2022-11-23T05:19:45.734Z,25.20
2022-11-23T05:21:48.749Z,23.87
2022-11-23T05:23:51.581Z,23.40
2022-11-23T05:25:54.820Z,26.70
2022-11-23T05:27:57.054Z,28.43
2022-11-23T05:29:59.347Z,29.50
2022-11-23T05:32:01.534Z,27.10
2022-11-23T05:34:04.600Z,24.50
2022-11-23T05:36:14.514Z,29.20
2022-11-23T05:38:17.820Z,35.73
2022-11-23T05:40:19.975Z,30.60
2022-11-23T05:42:23.444Z,32.07
2022-11-23T05:44:27.551Z,25.93
2022-11-23T05:46:29.765Z,28.33
2022-11-23T05:48:31.920Z,26.40
2022-11-23T05:50:34.103Z,22.73
2022-11-23T05:52:56.846Z,26.47
2022-11-23T05:54:59.034Z,26.13
2022-11-23T05:57:01.234Z,26.60
2022-11-23T05:59:30.123Z,25.70
2022-11-23T06:01:36.609Z,24.67
2022-11-23T06:03:39.755Z,24.80
2022-11-23T06:05:41.911Z,23.93
2022-11-23T06:07:44.336Z,30.70
2022-11-23T06:09:48.479Z,25.10
2022-11-23T06:11:50.886Z,23.50
2022-11-23T06:13:55.375Z,38.70
2022-11-23T06:15:57.636Z,28.47
2022-11-23T06:18:07.154Z,29.17
2022-11-23T06:20:18.196Z,30.80
2022-11-23T06:22:27.897Z,30.13
2022-11-23T06:24:35.398Z,35.20
2022-11-23T06:26:55.921Z,32.07
2022-11-23T06:28:58.412Z,32.50
2022-11-23T06:31:05.507Z,31.70
2022-11-23T06:33:08.231Z,38.20
2022-11-23T06:35:17.291Z,25.70
2022-11-23T06:37:20.178Z,27.67
2022-11-23T06:39:27.309Z,29.60
2022-11-23T06:41:32.391Z,43.13
2022-11-23T06:43:36.585Z,32.97
2022-11-23T06:45:38.823Z,25.93
2022-11-23T06:47:44.545Z,27.53
2022-11-23T06:49:46.791Z,26.50
2022-11-23T06:51:56.421Z,29.93
2022-11-23T06:53:58.575Z,29.37
2022-11-23T06:56:01.929Z,30.93
2022-11-23T06:58:06.438Z,31.10
2022-11-23T07:00:11.252Z,29.47
2022-11-23T07:02:14.744Z,24.13
2022-11-23T07:04:17.379Z,23.63
2022-11-23T07:06:24.188Z,34.43
2022-11-23T07:08:29.198Z,31.50
2022-11-23T07:10:33.485Z,28.07
2022-11-23T07:12:36.703Z,28.67
2022-11-23T07:14:39.321Z,36.77
2022-11-23T07:16:42.478Z,29.10
2022-11-23T07:18:44.841Z,30.80
2022-11-23T07:20:47.024Z,36.77
2022-11-23T07:22:49.281Z,28.90
2022-11-23T07:24:51.517Z,31.83
2022-11-23T07:26:53.735Z,27.53
2022-11-23T07:28:56.007Z,27.90
2022-11-23T07:30:58.226Z,30.43
2022-11-23T07:33:02.557Z,25.30
2022-11-23T07:35:05.882Z,29.80
2022-11-23T07:37:11.451Z,32.00
2022-11-23T07:39:14.498Z,37.53
2022-11-23T07:41:18.070Z,27.37
2022-11-23T07:43:30.098Z,27.97
2022-11-23T07:45:32.864Z,27.97
2022-11-23T07:47:35.760Z,30.23
2022-11-23T07:49:37.936Z,28.90
2022-11-23T07:51:40.079Z,25.97
2022-11-23T07:53:42.452Z,30.20
2022-11-23T07:55:44.580Z,24.73
2022-11-23T07:57:46.785Z,24.57
2022-11-23T07:59:48.985Z,23.50
2022-11-23T08:01:55.645Z,23.73
2022-11-23T08:04:00.368Z,31.10
2022-11-23T08:06:02.605Z,27.90
2022-11-23T08:08:05.001Z,21.80
2022-11-23T08:10:07.348Z,29.03
2022-11-23T08:12:09.532Z,27.23
2022-11-23T08:14:11.885Z,28.57
2022-11-23T08:16:14.011Z,26.93
2022-11-23T08:18:16.128Z,22.93
2022-11-23T08:20:18.252Z,20.37
2022-11-23T08:22:20.466Z,21.57
2022-11-23T08:24:22.649Z,26.60
2022-11-23T08:26:24.782Z,18.00
2022-11-23T08:28:26.885Z,18.70
2022-11-23T08:30:30.507Z,20.10
2022-11-23T08:32:32.676Z,17.00
2022-11-23T08:34:35.172Z,19.80
2022-11-23T08:36:37.683Z,17.53
2022-11-23T08:38:39.809Z,27.30
2022-11-23T08:40:42.105Z,22.70
2022-11-23T08:42:44.267Z,19.87
2022-11-23T08:44:46.414Z,16.97
2022-11-23T08:46:48.620Z,24.90
2022-11-23T08:48:50.866Z,15.87
2022-11-23T08:50:53.955Z,20.40
2022-11-23T08:52:59.562Z,17.43
2022-11-23T08:55:01.689Z,16.20
2022-11-23T08:57:03.891Z,17.40
2022-11-23T08:59:06.044Z,12.37
2022-11-23T09:01:12.776Z,13.50
2022-11-23T09:03:14.986Z,14.50
2022-11-23T09:05:17.124Z,9.37
2022-11-23T09:07:19.396Z,13.83
2022-11-23T09:09:21.584Z,10.20
2022-11-23T09:11:24.124Z,12.07
2022-11-23T09:13:26.262Z,9.43
2022-11-23T09:15:28.528Z,8.60
2022-11-23T09:17:32.542Z,12.70
2022-11-23T09:19:34.669Z,8.80
2022-11-23T09:21:39.173Z,11.40
2022-11-23T09:23:41.327Z,11.10
2022-11-23T09:25:47.726Z,10.33
2022-11-23T09:27:56.178Z,10.57
2022-11-23T09:29:58.291Z,15.97
2022-11-23T09:32:02.647Z,10.73
2022-11-23T09:34:05.258Z,11.00
2022-11-23T09:36:07.705Z,9.43
2022-11-23T09:38:09.993Z,10.23
2022-11-23T09:40:17.371Z,14.13
2022-11-23T09:42:51.908Z,11.50
2022-11-23T09:45:15.282Z,11.03
2022-11-23T09:47:49.814Z,12.10
2022-11-23T09:50:03.263Z,11.47
2022-11-23T09:52:14.161Z,11.57
2022-11-23T09:54:26.859Z,12.37
2022-11-23T09:56:33.459Z,15.30
2022-11-23T09:58:39.624Z,12.20
2022-11-23T10:00:48.205Z,13.30
2022-11-23T10:02:50.379Z,11.13
2022-11-23T10:04:53.795Z,12.10
2022-11-23T10:07:03.274Z,9.50
2022-11-23T10:09:17.583Z,11.27
2022-11-23T10:11:45.072Z,10.33
2022-11-23T10:14:08.451Z,14.90
2022-11-23T10:16:17.556Z,12.30
2022-11-23T10:18:27.917Z,10.10
2022-11-23T10:20:51.778Z,13.07
2022-11-23T10:23:01.590Z,10.50
2022-11-23T10:25:14.953Z,13.17
2022-11-23T10:27:19.661Z,12.23
2022-11-23T10:29:31.498Z,12.77
2022-11-23T10:31:33.459Z,10.00
2022-11-23T10:33:47.947Z,10.93
2022-11-23T10:35:50.136Z,16.07
2022-11-23T10:37:53.915Z,15.97
2022-11-23T10:39:56.022Z,14.43
2022-11-23T10:42:02.167Z,10.13
2022-11-23T10:44:05.602Z,11.93
2022-11-23T10:46:28.007Z,10.40
2022-11-23T10:48:35.627Z,11.93
2022-11-23T10:50:40.881Z,16.73
2022-11-23T10:52:50.931Z,12.20
2022-11-23T10:54:54.398Z,13.37
2022-11-23T10:56:57.123Z,8.60
2022-11-23T10:58:59.333Z,12.67
2022-11-23T11:01:06.528Z,12.23
2022-11-23T11:03:23.348Z,11.57
2022-11-23T11:06:07.081Z,9.63
2022-11-23T11:07:55.205Z,11.60
2022-11-23T11:09:59.544Z,9.30
2022-11-23T11:12:02.078Z,9.03
2022-11-23T11:14:23.402Z,6.90
2022-11-23T11:16:33.824Z,7.00
2022-11-23T11:18:37.708Z,7.03
2022-11-23T11:20:40.032Z,11.93
2022-11-23T11:22:47.464Z,11.87
2022-11-23T11:24:49.974Z,10.40
2022-11-23T11:27:00.041Z,10.43
2022-11-23T11:29:04.380Z,9.07
2022-11-23T11:31:30.462Z,10.70
2022-11-23T11:33:38.399Z,6.63
2022-11-23T11:35:42.697Z,5.87
2022-11-23T11:37:46.742Z,8.87
2022-11-23T11:39:52.499Z,5.63
2022-11-23T11:41:54.862Z,9.53
2022-11-23T11:44:06.310Z,9.23
2022-11-23T11:46:30.917Z,7.40
2022-11-23T11:48:36.892Z,6.20
2022-11-23T11:50:44.324Z,6.27
2022-11-23T11:52:48.055Z,6.30
2022-11-23T11:55:10.690Z,6.70
2022-11-23T11:57:24.555Z,6.27
2022-11-23T11:59:42.758Z,12.37
2022-11-23T12:01:50.896Z,8.80
2022-11-23T12:04:00.740Z,12.13
2022-11-23T12:06:08.768Z,6.60
2022-11-23T12:08:39.949Z,5.40
2022-11-23T12:10:51.575Z,9.73
2022-11-23T12:12:56.414Z,6.80
2022-11-23T12:14:58.678Z,4.57
2022-11-23T12:17:37.796Z,8.10
2022-11-23T12:20:05.461Z,5.73
2022-11-23T12:22:28.175Z,3.70
2022-11-23T12:24:59.643Z,8.00
2022-11-23T12:27:18.303Z,4.27
2022-11-23T12:29:46.011Z,10.43
2022-11-23T12:31:57.913Z,5.67
2022-11-23T12:34:05.697Z,9.53
2022-11-23T12:36:42.289Z,9.63
2022-11-23T12:38:56.431Z,8.90
2022-11-23T12:41:20.546Z,7.03
2022-11-23T12:43:43.293Z,6.10
2022-11-23T12:46:08.587Z,7.17
2022-11-23T12:48:52.695Z,10.53
2022-11-23T12:51:18.795Z,6.47
2022-11-23T12:53:39.357Z,5.00
2022-11-23T12:56:01.729Z,5.27
2022-11-23T12:58:15.910Z,7.20
2022-11-23T13:00:20.520Z,7.47
2022-11-23T13:03:04.611Z,10.77
2022-11-23T13:05:22.118Z,6.53
2022-11-23T13:08:01.734Z,9.67
2022-11-23T13:10:13.083Z,5.33
2022-11-23T13:12:21.399Z,7.33
2022-11-23T13:14:49.887Z,5.27
2022-11-23T13:17:07.261Z,12.07
2022-11-23T13:19:16.399Z,5.30
2022-11-23T13:21:39.886Z,9.13
2022-11-23T13:23:44.769Z,9.50
2022-11-23T13:26:14.446Z,8.33
2022-11-23T13:28:32.085Z,4.90
2022-11-23T13:30:59.298Z,8.00
2022-11-23T13:33:10.322Z,7.50
2022-11-23T13:35:21.776Z,3.67
2022-11-23T13:37:24.259Z,11.97
2022-11-23T13:39:45.320Z,8.90
2022-11-23T13:41:58.694Z,12.17
2022-11-23T13:44:18.804Z,8.13
2022-11-23T13:46:23.878Z,7.07
2022-11-23T13:48:56.160Z,6.93
2022-11-23T13:50:51.576Z,9.23
2022-11-23T13:52:53.662Z,7.70
2022-11-23T13:55:23.169Z,7.70
2022-11-23T13:57:25.106Z,5.80
2022-11-23T13:59:31.892Z,8.20
2022-11-23T14:01:59.004Z,5.03
2022-11-23T14:04:20.775Z,6.03
2022-11-23T14:06:32.686Z,9.70
2022-11-23T14:08:35.451Z,12.00
2022-11-23T14:10:37.852Z,7.77
2022-11-23T14:12:50.177Z,6.60
2022-11-23T14:15:08.079Z,6.60
2022-11-23T14:17:47.063Z,6.30
2022-11-23T14:20:28.939Z,8.80
2022-11-23T14:22:42.124Z,10.47
2022-11-23T14:25:19.727Z,7.43
2022-11-23T14:27:47.242Z,7.63
2022-11-23T14:29:53.949Z,4.23
2022-11-23T14:32:27.471Z,7.40
2022-11-23T14:34:51.667Z,4.77
2022-11-23T14:37:01.493Z,9.60
2022-11-23T14:39:40.668Z,11.50
2022-11-23T14:41:42.850Z,9.07
2022-11-23T14:43:45.620Z,5.20
2022-11-23T14:45:47.835Z,7.17
2022-11-23T14:47:49.954Z,4.53
2022-11-23T14:49:52.257Z,3.10
2022-11-23T14:51:54.334Z,6.53
2022-11-23T14:53:59.683Z,9.20
2022-11-23T14:56:01.941Z,9.50
2022-11-23T14:58:05.596Z,7.23
2022-11-23T15:00:25.316Z,12.17
2022-11-23T15:02:33.555Z,7.57
2022-11-23T15:04:40.983Z,12.87
2022-11-23T15:06:46.220Z,11.10
2022-11-23T15:09:07.747Z,5.57
2022-11-23T15:11:13.026Z,9.33
2022-11-23T15:13:21.544Z,9.57
2022-11-23T15:15:26.712Z,8.40
2022-11-23T15:17:28.892Z,8.50
2022-11-23T15:19:30.831Z,8.00
2022-11-23T15:21:32.830Z,7.63
2022-11-23T15:23:37.003Z,7.00
2022-11-23T15:25:38.952Z,4.63
2022-11-23T15:27:44.221Z,5.23
2022-11-23T15:29:54.890Z,4.47
2022-11-23T15:32:22.308Z,10.17
2022-11-23T15:34:19.080Z,4.60
2022-11-23T15:36:27.514Z,8.03
2022-11-23T15:38:29.482Z,9.70
2022-11-23T15:40:35.599Z,7.60
2022-11-23T15:42:37.771Z,8.03
2022-11-23T15:44:39.693Z,4.57
2022-11-23T15:46:42.067Z,7.50
2022-11-23T15:48:48.501Z,9.60
2022-11-23T15:50:59.389Z,6.47
2022-11-23T15:53:01.909Z,9.00
2022-11-23T15:55:09.609Z,11.40
2022-11-23T15:57:26.064Z,9.33
2022-11-23T15:59:41.033Z,7.47
2022-11-23T16:01:43.432Z,7.73
2022-11-23T16:04:02.052Z,7.33
2022-11-23T16:06:13.026Z,9.57
2022-11-23T16:08:24.953Z,18.70
2022-11-23T16:10:30.980Z,10.10
2022-11-23T16:12:35.500Z,10.90
2022-11-23T16:14:37.965Z,8.63
2022-11-23T16:16:45.187Z,8.30
2022-11-23T16:18:52.219Z,7.40
2022-11-23T16:21:00.306Z,8.53
2022-11-23T16:23:02.474Z,20.77
2022-11-23T16:25:25.960Z,11.43
2022-11-23T16:27:27.924Z,6.00
2022-11-23T16:29:34.563Z,9.97
2022-11-23T16:31:38.503Z,6.90
2022-11-23T16:33:40.611Z,8.93
2022-11-23T16:35:42.853Z,15.23
2022-11-23T16:37:45.244Z,7.70
2022-11-23T16:39:47.348Z,8.23
2022-11-23T16:41:49.592Z,7.73
2022-11-23T16:43:54.494Z,11.80
2022-11-23T16:45:56.498Z,11.73
2022-11-23T16:48:00.444Z,10.20
2022-11-23T16:50:03.290Z,9.70
2022-11-23T16:52:05.346Z,10.30
2022-11-23T16:54:13.489Z,11.27
2022-11-23T16:56:24.498Z,9.00
2022-11-23T16:58:30.235Z,11.67
2022-11-23T17:00:33.930Z,11.70
2022-11-23T17:02:36.067Z,19.73
2022-11-23T17:04:38.134Z,19.10
2022-11-23T17:06:42.751Z,20.70
2022-11-23T17:08:46.079Z,26.30
2022-11-23T17:10:48.558Z,26.40
2022-11-23T17:12:52.734Z,17.17
2022-11-23T17:14:54.792Z,19.83
2022-11-23T17:16:56.908Z,21.93
2022-11-23T17:18:58.947Z,13.60
2022-11-23T17:21:00.896Z,15.10
2022-11-23T17:23:02.975Z,17.73
2022-11-23T17:25:10.155Z,15.30
2022-11-23T17:27:25.040Z,19.83
2022-11-23T17:29:27.089Z,23.23
2022-11-23T17:31:29.582Z,22.47
2022-11-23T17:33:31.641Z,18.00
2022-11-23T17:35:36.965Z,22.97
2022-11-23T17:37:40.394Z,18.63
2022-11-23T17:39:42.387Z,19.80
2022-11-23T17:41:44.368Z,20.23
2022-11-23T17:43:46.429Z,27.13
2022-11-23T17:45:48.694Z,22.67
2022-11-23T17:47:50.778Z,21.37
2022-11-23T17:49:53.022Z,30.50
2022-11-23T17:51:55.803Z,21.47
2022-11-23T17:53:57.909Z,21.10
2022-11-23T17:55:59.978Z,26.47
2022-11-23T17:58:02.148Z,27.33
2022-11-23T18:00:05.533Z,29.67
2022-11-23T18:02:13.982Z,24.73
2022-11-23T18:04:15.944Z,31.17
2022-11-23T18:06:24.007Z,29.80
2022-11-23T18:08:25.918Z,25.83
2022-11-23T18:10:27.987Z,35.20
2022-11-23T18:12:30.198Z,24.50
2022-11-23T18:14:32.446Z,30.37
2022-11-23T18:16:34.440Z,26.80
2022-11-23T18:18:36.935Z,28.07
2022-11-23T18:20:38.973Z,25.77
2022-11-23T18:22:41.073Z,27.63
2022-11-23T18:24:43.105Z,24.90
2022-11-23T18:26:45.159Z,25.03
2022-11-23T18:28:48.334Z,32.70
2022-11-23T18:30:50.388Z,28.37
2022-11-23T18:32:52.426Z,26.27
2022-11-23T18:34:54.362Z,23.97
2022-11-23T18:36:56.392Z,23.00
2022-11-23T18:38:58.471Z,24.20
2022-11-23T18:41:00.875Z,24.23
2022-11-23T18:43:02.944Z,25.90
2022-11-23T18:45:05.387Z,22.60
2022-11-23T18:47:07.354Z,23.70
2022-11-23T18:49:09.416Z,18.93
2022-11-23T18:51:13.346Z,17.87
2022-11-23T18:53:15.951Z,24.90
2022-11-23T18:55:18.097Z,28.23
2022-11-23T18:57:20.139Z,22.13
2022-11-23T18:59:56.254Z,26.33
2022-11-23T19:01:44.674Z,19.10
2022-11-23T19:03:48.824Z,25.03
2022-11-23T19:05:51.078Z,25.73
2022-11-23T19:07:53.381Z,21.53
2022-11-23T19:09:55.563Z,22.03
2022-11-23T19:11:57.548Z,28.90
2022-11-23T19:14:01.482Z,17.30
2022-11-23T19:16:11.163Z,21.50
2022-11-23T19:18:13.273Z,21.50
2022-11-23T19:20:18.522Z,13.33
2022-11-23T19:22:20.650Z,21.87
2022-11-23T19:24:22.772Z,14.77
2022-11-23T19:26:25.827Z,18.47
2022-11-23T19:28:28.323Z,19.00
2022-11-23T19:30:30.242Z,21.80
2022-11-23T19:32:33.698Z,21.77
2022-11-23T19:34:35.661Z,28.00
2022-11-23T19:36:37.954Z,34.27
2022-11-23T19:38:40.094Z,27.30
2022-11-23T19:40:42.249Z,34.70
2022-11-23T19:42:44.575Z,18.27
2022-11-23T19:44:46.556Z,24.50
2022-11-23T19:46:48.621Z,19.47
2022-11-23T19:48:50.846Z,19.37
2022-11-23T19:51:02.321Z,21.60
2022-11-23T19:53:12.445Z,23.80
2022-11-23T19:55:15.415Z,20.33
2022-11-23T19:57:17.574Z,32.60
2022-11-23T19:59:19.833Z,21.60
2022-11-23T20:01:23.938Z,21.50
2022-11-23T20:03:26.146Z,19.27
2022-11-23T20:05:28.417Z,17.63
2022-11-23T20:07:31.394Z,17.97
2022-11-23T20:09:33.663Z,23.13
2022-11-23T20:11:36.811Z,17.63
2022-11-23T20:13:39.228Z,14.93
2022-11-23T20:15:43.969Z,16.50
2022-11-23T20:17:48.665Z,19.60
2022-11-23T20:19:50.756Z,19.33
2022-11-23T20:21:53.379Z,14.83
2022-11-23T20:24:01.295Z,20.60
2022-11-23T20:26:06.938Z,23.47
2022-11-23T20:28:12.663Z,17.83
2022-11-23T20:30:15.136Z,16.33
2022-11-23T20:32:17.236Z,18.57
2022-11-23T20:34:22.971Z,20.77
2022-11-23T20:36:29.896Z,21.23
2022-11-23T20:38:36.250Z,25.33
2022-11-23T20:40:38.438Z,23.60
2022-11-23T20:42:40.930Z,22.67
2022-11-23T20:44:43.074Z,20.60
2022-11-23T20:47:02.367Z,30.87
2022-11-23T20:49:05.155Z,26.53
2022-11-23T20:51:10.606Z,19.67
2022-11-23T20:53:13.107Z,22.73
2022-11-23T20:55:23.140Z,24.20
2022-11-23T20:57:25.258Z,35.90
2022-11-23T20:59:27.455Z,19.87
2022-11-23T21:01:29.979Z,24.97
2022-11-23T21:03:33.557Z,25.80
2022-11-23T21:05:36.414Z,24.10
2022-11-23T21:07:38.601Z,31.30
2022-11-23T21:09:40.821Z,22.93
2022-11-23T21:12:01.515Z,25.50
2022-11-23T21:14:12.380Z,17.57
2022-11-23T21:16:17.921Z,17.43
2022-11-23T21:18:20.072Z,23.20
2022-11-23T21:20:22.342Z,17.03
2022-11-23T21:22:24.509Z,17.50
2022-11-23T21:24:27.989Z,20.23
2022-11-23T21:26:30.175Z,21.13
2022-11-23T21:28:33.083Z,18.93
2022-11-23T21:30:35.858Z,17.53
2022-11-23T21:32:38.128Z,19.20
2022-11-23T21:34:40.486Z,18.63
2022-11-23T21:36:42.657Z,23.97
2022-11-23T21:38:45.432Z,20.60
2022-11-23T21:40:47.631Z,18.50
2022-11-23T21:42:51.658Z,20.57
2022-11-23T21:44:53.740Z,20.30
2022-11-23T21:46:56.091Z,17.87
2022-11-23T21:48:59.459Z,18.60
2022-11-23T21:51:11.551Z,18.27
2022-11-23T21:53:13.663Z,19.07
2022-11-23T21:55:15.871Z,19.87
2022-11-23T21:57:17.979Z,20.63
2022-11-23T21:59:20.188Z,31.40
2022-11-23T22:01:24.642Z,29.73
2022-11-23T22:03:26.891Z,30.60
2022-11-23T22:05:29.029Z,21.47
2022-11-23T22:07:33.334Z,19.17
2022-11-23T22:09:35.524Z,17.63
2022-11-23T22:11:41.007Z,24.73
2022-11-23T22:13:44.251Z,21.50
2022-11-23T22:15:46.398Z,17.23
2022-11-23T22:17:49.004Z,17.00
2022-11-23T22:19:51.953Z,18.60
2022-11-23T22:21:54.164Z,23.10
2022-11-23T22:23:56.388Z,16.07
2022-11-23T22:26:06.240Z,17.23
2022-11-23T22:28:08.605Z,30.00
2022-11-23T22:30:11.164Z,18.60
2022-11-23T22:32:13.491Z,17.53
2022-11-23T22:34:15.708Z,19.10
2022-11-23T22:36:23.288Z,19.10
2022-11-23T22:38:25.416Z,17.93
2022-11-23T22:40:32.712Z,15.93
2022-11-23T22:42:34.927Z,19.43
2022-11-23T22:44:37.257Z,15.23
2022-11-23T22:46:40.018Z,13.30
2022-11-23T22:48:44.351Z,17.27
2022-11-23T22:50:56.421Z,14.53
2022-11-23T22:52:58.615Z,20.10
2022-11-23T22:55:00.757Z,21.67
2022-11-23T22:57:02.928Z,13.30
2022-11-23T22:59:05.820Z,23.07
2022-11-23T23:01:15.245Z,17.63
2022-11-23T23:03:17.554Z,30.77
2022-11-23T23:05:19.826Z,20.20
2022-11-23T23:07:22.015Z,23.83
2022-11-23T23:09:24.169Z,16.53
2022-11-23T23:11:28.304Z,21.13
2022-11-23T23:13:30.508Z,22.03
2022-11-23T23:15:32.669Z,17.70
2022-11-23T23:17:35.420Z,30.10
2022-11-23T23:19:37.628Z,24.53
2022-11-23T23:21:39.831Z,20.67
2022-11-23T23:23:46.412Z,24.00
2022-11-23T23:25:48.556Z,18.70
2022-11-23T23:27:50.677Z,17.07
2022-11-23T23:29:52.822Z,21.87
2022-11-23T23:31:54.973Z,20.87
2022-11-23T23:33:59.219Z,17.30
2022-11-23T23:36:09.217Z,23.20
2022-11-23T23:38:11.423Z,19.97
2022-11-23T23:40:13.573Z,25.93
2022-11-23T23:42:16.017Z,27.90
2022-11-23T23:44:19.649Z,19.40
2022-11-23T23:46:22.045Z,21.03
2022-11-23T23:48:25.544Z,19.33
2022-11-23T23:50:27.680Z,22.03
2022-11-23T23:52:29.825Z,26.07
2022-11-23T23:54:32.665Z,21.13
2022-11-23T23:56:35.054Z,21.67
2022-11-23T23:58:37.422Z,20.33
